Time;durP1;ratioP1;P1;durP2;ratioP2;P2;SDS_P1;SDS_P2;PMS_P1;PMS_P2;Temp;Humidity;BMP_temperature;BMP_pressure;BME280_temperature;BME280_humidity;BME280_pressure;Samples;Min_cycle;Max_cycle;Signal;HPM_P1;HPM_P2
2021/07/27 00:01:08;;;;;;;12.00;6.50;;;13.90;99.90;;;;;;5055176;28;20302;-67
2021/07/27 00:03:34;;;;;;;7.13;5.93;;;14.00;99.90;;;;;;5054994;28;20182;-66
2021/07/27 00:05:59;;;;;;;8.70;7.20;;;13.90;99.90;;;;;;5055178;28;20436;-67
2021/07/27 00:08:25;;;;;;;9.90;7.73;;;13.90;99.90;;;;;;5055130;28;20949;-66
2021/07/27 00:10:51;;;;;;;7.90;6.10;;;13.90;99.90;;;;;;5055573;28;20516;-66
2021/07/27 00:13:16;;;;;;;7.33;6.03;;;13.90;99.90;;;;;;5055399;28;20245;-67
2021/07/27 00:15:42;;;;;;;9.57;6.90;;;13.90;99.90;;;;;;5054949;28;20505;-67
2021/07/27 00:18:08;;;;;;;12.90;7.67;;;13.90;99.90;;;;;;5055076;28;20166;-67
2021/07/27 00:20:34;;;;;;;7.20;6.37;;;13.90;99.90;;;;;;5055035;28;20423;-67
2021/07/27 00:23:00;;;;;;;7.80;6.77;;;13.90;99.90;;;;;;5055178;28;20412;-67
2021/07/27 00:25:26;;;;;;;11.47;8.27;;;13.90;99.90;;;;;;5055092;28;20401;-67
2021/07/27 00:27:52;;;;;;;11.60;7.33;;;13.80;99.90;;;;;;5055238;28;20591;-67
2021/07/27 00:30:17;;;;;;;12.53;7.20;;;13.80;99.90;;;;;;5054646;28;20748;-67
2021/07/27 00:32:44;;;;;;;8.27;6.40;;;13.80;99.90;;;;;;5054793;28;20166;-67
2021/07/27 00:35:12;;;;;;;9.03;6.93;;;13.70;99.90;;;;;;5054678;28;20170;-66
2021/07/27 00:37:43;;;;;;;7.87;5.97;;;13.80;99.90;;;;;;5054559;28;20405;-67
2021/07/27 00:40:09;;;;;;;9.60;7.40;;;13.70;99.90;;;;;;5054575;28;20428;-67
2021/07/27 00:42:48;;;;;;;10.20;7.60;;;13.70;99.90;;;;;;5054851;28;20423;-66
2021/07/27 00:45:15;;;;;;;8.43;6.40;;;13.70;99.90;;;;;;5054325;28;20449;-67
2021/07/27 00:47:41;;;;;;;13.43;7.70;;;13.60;99.90;;;;;;5054509;28;20460;-67
2021/07/27 00:50:09;;;;;;;9.60;7.80;;;13.60;99.90;;;;;;5054569;28;20416;-67
2021/07/27 00:52:36;;;;;;;8.47;6.50;;;13.50;99.90;;;;;;5054733;28;20401;-67
2021/07/27 00:55:03;;;;;;;9.93;7.53;;;13.60;99.90;;;;;;5054039;28;20806;-67
2021/07/27 00:57:30;;;;;;;11.60;6.57;;;13.60;99.90;;;;;;5054152;28;20507;-67
2021/07/27 00:59:56;;;;;;;8.37;7.57;;;13.60;99.90;;;;;;5054379;28;20429;-66
2021/07/27 01:02:22;;;;;;;8.67;7.50;;;13.60;99.90;;;;;;5054312;28;20450;-67
2021/07/27 01:04:48;;;;;;;8.47;6.10;;;13.60;99.90;;;;;;5053886;28;20401;-67
2021/07/27 01:07:14;;;;;;;8.67;7.07;;;13.60;99.90;;;;;;5053972;28;20203;-67
2021/07/27 01:09:40;;;;;;;13.03;7.77;;;13.70;99.90;;;;;;5053736;28;20448;-67
2021/07/27 01:12:06;;;;;;;7.90;6.97;;;13.70;99.90;;;;;;5053347;28;20751;-67
2021/07/27 01:14:32;;;;;;;9.60;7.50;;;13.70;99.90;;;;;;5053809;28;20479;-67
2021/07/27 01:16:58;;;;;;;8.17;6.33;;;13.70;99.90;;;;;;5054089;28;20180;-66
2021/07/27 01:43:43;;;;;;;10.97;6.87;;;13.50;99.90;;;;;;5053622;28;20490;-67
2021/07/27 01:46:10;;;;;;;9.07;6.63;;;13.40;99.90;;;;;;5053251;28;20535;-67
2021/07/27 01:48:36;;;;;;;9.33;7.37;;;13.40;99.90;;;;;;5053657;28;20420;-66
2021/07/27 01:51:05;;;;;;;11.23;8.10;;;13.40;99.90;;;;;;5054158;28;20405;-67
2021/07/27 01:53:50;;;;;;;9.60;7.63;;;13.40;99.90;;;;;;5053073;28;20404;-66
2021/07/27 01:56:17;;;;;;;10.40;7.40;;;13.40;99.90;;;;;;5053517;28;20477;-66
2021/07/27 01:58:43;;;;;;;6.03;5.43;;;13.30;99.90;;;;;;5053531;28;20428;-67
2021/07/27 02:01:10;;;;;;;11.70;7.40;;;13.20;99.90;;;;;;5053735;28;20446;-66
2021/07/27 02:03:36;;;;;;;6.53;5.37;;;13.20;99.90;;;;;;5053271;28;20415;-66
2021/07/27 02:06:01;;;;;;;10.73;6.23;;;13.30;99.90;;;;;;5053129;28;20444;-67
2021/07/27 02:08:27;;;;;;;14.37;8.90;;;13.40;99.90;;;;;;5053058;28;20185;-67
2021/07/27 02:10:57;;;;;;;10.53;8.00;;;13.40;99.90;;;;;;5053721;28;20212;-67
2021/07/27 02:13:28;;;;;;;11.87;8.17;;;13.40;99.90;;;;;;5053368;28;20166;-67
2021/07/27 02:15:54;;;;;;;10.90;8.00;;;13.50;99.90;;;;;;5053588;28;20414;-67
2021/07/27 02:18:22;;;;;;;9.93;7.70;;;13.60;99.90;;;;;;5053085;28;20503;-66
2021/07/27 02:20:48;;;;;;;11.47;7.73;;;13.60;99.90;;;;;;5053147;28;20255;-66
2021/07/27 02:23:14;;;;;;;12.93;8.73;;;13.60;99.90;;;;;;5053790;28;20956;-67
2021/07/27 02:25:40;;;;;;;10.23;8.17;;;13.60;99.90;;;;;;5057322;28;20170;-66
2021/07/27 02:28:06;;;;;;;9.30;7.60;;;13.60;99.90;;;;;;5057038;28;20972;-67
2021/07/27 02:30:39;;;;;;;8.87;7.03;;;13.50;99.90;;;;;;5057479;28;20767;-67
2021/07/27 02:33:05;;;;;;;9.87;8.20;;;13.50;99.90;;;;;;5057102;28;20479;-67
2021/07/27 02:35:30;;;;;;;8.87;6.77;;;13.50;99.90;;;;;;5056734;28;20945;-67
2021/07/27 02:37:56;;;;;;;11.83;8.20;;;13.50;99.90;;;;;;5056993;28;20168;-67
2021/07/27 02:40:22;;;;;;;16.20;8.90;;;13.40;99.90;;;;;;5057016;28;20654;-67
2021/07/27 02:42:48;;;;;;;14.73;8.07;;;13.40;99.90;;;;;;5057197;28;20248;-67
2021/07/27 02:45:14;;;;;;;9.10;7.80;;;13.30;99.90;;;;;;5056211;28;20177;-66
2021/07/27 02:47:41;;;;;;;7.93;7.13;;;13.20;99.90;;;;;;5056534;28;20939;-66
2021/07/27 02:50:08;;;;;;;10.37;7.57;;;13.10;99.90;;;;;;5056628;28;20438;-66
2021/07/27 02:52:34;;;;;;;10.77;8.20;;;13.10;99.90;;;;;;5056981;28;20404;-67
2021/07/27 02:55:00;;;;;;;9.70;7.53;;;13.20;99.90;;;;;;5056264;28;20762;-66
2021/07/27 02:57:25;;;;;;;8.90;7.13;;;13.20;99.90;;;;;;5056974;28;20409;-67
2021/07/27 02:59:51;;;;;;;8.73;7.57;;;13.30;99.90;;;;;;5056248;28;20917;-66
2021/07/27 03:02:21;;;;;;;11.20;8.00;;;13.30;99.90;;;;;;5056334;28;20177;-67
2021/07/27 03:04:47;;;;;;;9.37;7.37;;;13.30;99.90;;;;;;5056418;28;20569;-66
2021/07/27 03:07:19;;;;;;;12.20;7.43;;;13.30;99.90;;;;;;5056429;28;20568;-66
2021/07/27 03:12:28;;;;;;;10.87;7.00;;;13.20;99.90;;;;;;5057010;28;20902;-66
2021/07/27 03:15:02;;;;;;;9.30;7.57;;;13.20;99.90;;;;;;5055990;28;20505;-67
2021/07/27 03:17:28;;;;;;;12.03;8.17;;;13.10;99.90;;;;;;5056223;28;20264;-67
2021/07/27 03:19:54;;;;;;;8.67;7.07;;;13.10;99.90;;;;;;5056255;28;20424;-66
2021/07/27 03:22:19;;;;;;;10.20;7.60;;;13.00;99.90;;;;;;5056381;28;20424;-67
2021/07/27 03:24:45;;;;;;;10.97;8.00;;;13.00;99.90;;;;;;5055745;28;20178;-67
2021/07/27 03:27:13;;;;;;;9.43;7.60;;;13.10;99.90;;;;;;5055651;28;20194;-67
2021/07/27 03:29:39;;;;;;;8.70;7.43;;;13.10;99.90;;;;;;5055996;28;20201;-66
2021/07/27 03:32:05;;;;;;;7.63;6.70;;;13.10;99.90;;;;;;5055939;28;20745;-66
2021/07/27 03:34:31;;;;;;;12.90;8.87;;;13.10;99.90;;;;;;5055086;28;20162;-66
2021/07/27 03:36:56;;;;;;;9.13;8.23;;;13.10;99.90;;;;;;5055579;28;20917;-66
2021/07/27 03:39:22;;;;;;;12.20;8.20;;;13.10;99.90;;;;;;5055459;28;20200;-67
2021/07/27 03:41:47;;;;;;;19.50;8.07;;;13.10;99.90;;;;;;5056171;28;20174;-67
2021/07/27 03:44:15;;;;;;;10.10;6.80;;;13.10;99.90;;;;;;5055449;28;20174;-66
2021/07/27 03:46:43;;;;;;;7.83;7.07;;;13.10;99.90;;;;;;5055589;28;20581;-67
2021/07/27 03:49:09;;;;;;;8.67;6.90;;;13.10;99.90;;;;;;5055525;28;20787;-66
2021/07/27 03:51:35;;;;;;;8.03;7.23;;;13.10;99.90;;;;;;5055847;28;20455;-67
2021/07/27 03:54:00;;;;;;;8.50;6.53;;;13.10;99.90;;;;;;5055500;28;20169;-67
2021/07/27 03:56:26;;;;;;;7.70;6.57;;;13.00;99.90;;;;;;5055488;28;20525;-67
2021/07/27 03:58:51;;;;;;;10.50;7.50;;;13.10;99.90;;;;;;5055412;28;20224;-66
2021/07/27 04:01:17;;;;;;;10.37;7.27;;;13.10;99.90;;;;;;5055559;28;20170;-66
2021/07/27 04:03:43;;;;;;;9.83;7.40;;;13.20;99.90;;;;;;5055085;28;20181;-66
2021/07/27 04:06:08;;;;;;;15.00;8.00;;;13.30;99.90;;;;;;5055599;28;20669;-66
2021/07/27 04:08:34;;;;;;;7.17;5.77;;;13.30;99.90;;;;;;5054988;28;20647;-66
2021/07/27 04:11:04;;;;;;;13.87;7.50;;;13.30;99.90;;;;;;5055050;28;20425;-66
2021/07/27 04:13:32;;;;;;;10.20;6.40;;;13.40;99.90;;;;;;5054794;28;20197;-66
2021/07/27 04:16:02;;;;;;;10.13;7.00;;;13.40;99.90;;;;;;5055206;28;20411;-66
2021/07/27 04:18:28;;;;;;;9.20;6.47;;;13.40;99.90;;;;;;5055244;28;20415;-66
2021/07/27 04:20:58;;;;;;;8.03;6.40;;;13.40;99.90;;;;;;5055258;28;20404;-67
2021/07/27 04:23:24;;;;;;;9.00;5.57;;;13.40;99.90;;;;;;5054950;28;20397;-66
2021/07/27 04:25:50;;;;;;;6.10;5.20;;;13.40;99.90;;;;;;5054902;28;20894;-67
2021/07/27 04:28:15;;;;;;;6.93;5.80;;;13.40;99.90;;;;;;5054802;28;20403;-67
2021/07/27 04:30:41;;;;;;;7.03;5.70;;;13.40;99.90;;;;;;5054986;28;20171;-67
2021/07/27 04:33:06;;;;;;;9.00;6.37;;;13.40;99.90;;;;;;5055078;28;20178;-66
2021/07/27 04:35:32;;;;;;;8.53;5.87;;;13.50;99.90;;;;;;5054963;28;20667;-67
2021/07/27 04:37:58;;;;;;;6.87;5.30;;;13.50;99.90;;;;;;5054818;28;20210;-67
2021/07/27 04:40:24;;;;;;;7.00;5.67;;;13.50;99.90;;;;;;5054674;28;20201;-66
2021/07/27 04:42:50;;;;;;;7.40;5.83;;;13.60;99.90;;;;;;5054609;28;20408;-67
2021/07/27 04:45:16;;;;;;;7.67;6.00;;;13.60;99.90;;;;;;5054525;28;20411;-67
2021/07/27 04:47:41;;;;;;;6.17;5.13;;;13.70;99.90;;;;;;5053300;28;20224;-67
2021/07/27 04:50:09;;;;;;;7.23;5.90;;;13.70;99.90;;;;;;5054113;28;20529;-68
2021/07/27 04:52:35;;;;;;;9.70;5.23;;;13.80;99.90;;;;;;5054543;28;20647;-66
2021/07/27 04:55:01;;;;;;;7.33;6.23;;;13.80;99.90;;;;;;5054144;28;20401;-67
2021/07/27 04:57:27;;;;;;;7.10;5.13;;;13.90;99.90;;;;;;5054070;28;20415;-67
2021/07/27 04:59:52;;;;;;;11.07;7.10;;;14.00;99.90;;;;;;5054416;28;20776;-67
2021/07/27 05:02:18;;;;;;;8.37;7.03;;;14.20;99.90;;;;;;5054458;28;20180;-66
2021/07/27 05:04:45;;;;;;;10.27;6.73;;;14.40;99.90;;;;;;5053827;28;20224;-66
2021/07/27 05:07:11;;;;;;;9.23;6.57;;;14.60;99.90;;;;;;5054057;28;20236;-67
2021/07/27 05:09:36;;;;;;;9.67;7.83;;;14.70;99.90;;;;;;5053855;28;20444;-67
2021/07/27 05:12:02;;;;;;;7.20;6.50;;;14.90;99.90;;;;;;5054096;28;20173;-66
2021/07/27 05:14:29;;;;;;;8.23;7.43;;;15.20;99.90;;;;;;5053522;28;20177;-67
2021/07/27 05:16:55;;;;;;;7.77;6.40;;;15.40;99.90;;;;;;5053841;28;20401;-67
2021/07/27 05:19:21;;;;;;;7.43;6.33;;;15.70;99.90;;;;;;5054261;28;20481;-67
2021/07/27 05:21:50;;;;;;;7.80;5.80;;;15.80;99.90;;;;;;5053715;28;20317;-67
2021/07/27 05:24:15;;;;;;;7.70;6.20;;;15.80;99.90;;;;;;5053523;28;20734;-67
2021/07/27 05:26:41;;;;;;;14.77;5.70;;;15.90;99.90;;;;;;5054115;28;20471;-67
2021/07/27 05:29:06;;;;;;;11.13;6.43;;;16.00;99.90;;;;;;5053415;28;20254;-67
2021/07/27 05:31:32;;;;;;;6.67;5.97;;;16.10;99.90;;;;;;5053984;28;20174;-66
2021/07/27 05:33:58;;;;;;;9.53;5.40;;;16.20;99.90;;;;;;5053728;28;20196;-66
2021/07/27 05:36:23;;;;;;;6.53;5.17;;;16.40;99.90;;;;;;5053433;28;20174;-68
2021/07/27 05:38:51;;;;;;;9.33;6.27;;;16.50;99.90;;;;;;5053495;28;20507;-67
2021/07/27 05:41:16;;;;;;;6.67;5.90;;;16.60;99.90;;;;;;5054013;28;20183;-67
2021/07/27 05:43:44;;;;;;;12.40;6.83;;;16.60;99.90;;;;;;5053404;28;20412;-67
2021/07/27 05:46:09;;;;;;;12.00;6.50;;;16.70;99.90;;;;;;5053361;28;20190;-67
2021/07/27 05:48:35;;;;;;;10.23;6.30;;;16.90;99.90;;;;;;5053769;28;20436;-67
2021/07/27 05:51:03;;;;;;;6.70;6.07;;;17.20;99.90;;;;;;5053329;28;20197;-66
2021/07/27 05:53:29;;;;;;;9.23;6.20;;;17.60;99.90;;;;;;5053172;28;20162;-67
2021/07/27 05:55:57;;;;;;;7.90;5.20;;;17.90;99.90;;;;;;5053371;28;20408;-67
2021/07/27 05:58:23;;;;;;;6.83;5.20;;;18.20;99.90;;;;;;5053058;28;20260;-67
2021/07/27 06:00:48;;;;;;;5.97;4.97;;;18.40;99.90;;;;;;5053175;28;20437;-67
2021/07/27 06:03:14;;;;;;;6.03;4.60;;;18.50;99.90;;;;;;5053619;28;20611;-67
2021/07/27 06:05:39;;;;;;;5.57;4.57;;;18.30;99.90;;;;;;5051915;28;20172;-67
2021/07/27 06:08:05;;;;;;;5.23;4.70;;;18.30;99.90;;;;;;5053132;28;20208;-68
2021/07/27 06:10:31;;;;;;;4.03;3.67;;;18.40;99.90;;;;;;5053136;28;20555;-68
2021/07/27 06:12:56;;;;;;;10.40;4.20;;;18.80;99.90;;;;;;5053537;28;20175;-68
2021/07/27 06:15:22;;;;;;;4.27;3.87;;;19.10;99.90;;;;;;5053438;28;20171;-68
2021/07/27 06:17:47;;;;;;;5.00;4.50;;;19.50;99.90;;;;;;5053255;28;20176;-68
2021/07/27 06:20:13;;;;;;;5.20;4.60;;;19.90;99.90;;;;;;5053127;28;20203;-68
2021/07/27 06:22:39;;;;;;;4.73;4.33;;;20.50;99.00;;;;;;5052354;28;20227;-68
2021/07/27 06:25:10;;;;;;;5.70;4.43;;;21.20;98.20;;;;;;5052531;28;20404;-67
2021/07/27 06:27:36;;;;;;;5.23;3.80;;;22.10;97.40;;;;;;5053486;28;20300;-68
2021/07/27 06:30:02;;;;;;;4.33;3.67;;;22.90;95.80;;;;;;5053422;28;20482;-67
2021/07/27 06:32:28;;;;;;;8.70;4.20;;;23.70;93.40;;;;;;5053143;28;20570;-68
2021/07/27 06:34:53;;;;;;;4.70;3.93;;;24.30;91.70;;;;;;5052817;28;20405;-68
2021/07/27 06:37:19;;;;;;;5.40;4.20;;;24.80;90.90;;;;;;5053066;28;20174;-68
2021/07/27 06:39:44;;;;;;;6.40;4.47;;;25.10;90.20;;;;;;5053161;28;20197;-68
2021/07/27 06:42:10;;;;;;;4.60;3.83;;;25.40;90.30;;;;;;5051992;28;20639;-68
2021/07/27 06:44:36;;;;;;;5.50;3.70;;;25.90;86.90;;;;;;5053192;28;20177;-67
2021/07/27 06:47:01;;;;;;;5.03;4.00;;;26.70;82.80;;;;;;5053022;28;20200;-68
2021/07/27 06:49:27;;;;;;;4.17;3.77;;;27.60;81.60;;;;;;5052814;28;20261;-68
2021/07/27 06:51:54;;;;;;;8.60;4.23;;;28.60;76.50;;;;;;5053085;28;20277;-68
2021/07/27 06:54:19;;;;;;;5.90;3.90;;;29.20;75.40;;;;;;5052737;28;20194;-67
2021/07/27 06:56:45;;;;;;;4.20;3.80;;;29.40;73.90;;;;;;5053049;28;20800;-67
2021/07/27 06:59:11;;;;;;;3.57;3.10;;;29.30;71.40;;;;;;5053170;28;20190;-68
2021/07/27 07:01:36;;;;;;;6.43;3.67;;;29.20;72.30;;;;;;5053223;28;20197;-68
2021/07/27 07:04:02;;;;;;;3.50;3.20;;;29.40;72.20;;;;;;5052526;28;20178;-68
2021/07/27 07:06:28;;;;;;;3.37;3.07;;;29.40;71.60;;;;;;5052737;28;20202;-67
2021/07/27 07:08:54;;;;;;;7.70;3.30;;;29.50;75.10;;;;;;5052431;28;20565;-69
2021/07/27 07:11:19;;;;;;;5.23;3.17;;;29.50;71.20;;;;;;5055721;28;20488;-68
2021/07/27 07:13:45;;;;;;;3.93;3.57;;;29.10;72.10;;;;;;5056115;28;20166;-68
2021/07/27 07:16:11;;;;;;;5.83;3.90;;;28.70;69.20;;;;;;5056689;28;20612;-68
2021/07/27 07:18:37;;;;;;;7.23;4.83;;;28.50;70.70;;;;;;5055956;28;20646;-70
2021/07/27 07:21:04;;;;;;;4.50;3.40;;;28.40;75.90;;;;;;5056185;28;20408;-69
2021/07/27 07:23:30;;;;;;;4.77;4.03;;;28.20;74.90;;;;;;5056020;28;20166;-67
2021/07/27 07:25:56;;;;;;;6.50;3.70;;;28.10;77.40;;;;;;5056237;28;20405;-68
2021/07/27 07:28:21;;;;;;;6.13;3.30;;;27.90;71.90;;;;;;5056306;28;20404;-67
2021/07/27 07:30:48;;;;;;;3.80;3.50;;;28.30;72.70;;;;;;5056553;28;20162;-69
2021/07/27 07:33:14;;;;;;;4.23;3.83;;;28.50;72.90;;;;;;5055679;28;20643;-68
2021/07/27 07:35:39;;;;;;;4.40;3.20;;;29.00;75.00;;;;;;5055930;28;20396;-68
2021/07/27 07:38:05;;;;;;;3.97;3.67;;;29.40;73.60;;;;;;5056149;28;20405;-69
2021/07/27 07:40:31;;;;;;;4.03;3.33;;;29.90;67.10;;;;;;5056023;28;20190;-68
2021/07/27 07:43:01;;;;;;;4.53;3.50;;;30.00;63.00;;;;;;5056228;28;20170;-69
2021/07/27 07:45:28;;;;;;;3.67;3.33;;;30.00;63.30;;;;;;5055313;28;20945;-68
2021/07/27 07:47:54;;;;;;;3.90;3.57;;;30.10;64.80;;;;;;5055504;28;20849;-68
2021/07/27 07:50:21;;;;;;;3.40;3.07;;;30.40;63.70;;;;;;5055727;28;20940;-69
2021/07/27 07:52:55;;;;;;;5.37;4.60;;;30.70;62.00;;;;;;5055366;28;20479;-68
2021/07/27 07:55:21;;;;;;;4.30;3.30;;;31.30;58.70;;;;;;5055386;28;20400;-69
2021/07/27 07:57:47;;;;;;;4.17;3.47;;;31.80;56.60;;;;;;5055977;28;20772;-68
2021/07/27 08:00:12;;;;;;;3.40;3.10;;;31.60;56.70;;;;;;5055481;28;20205;-68
2021/07/27 08:02:38;;;;;;;3.83;3.50;;;31.30;57.40;;;;;;5055507;28;20177;-68
2021/07/27 08:05:04;;;;;;;3.70;3.40;;;31.30;55.80;;;;;;5055352;28;20178;-68
2021/07/27 08:07:30;;;;;;;3.43;2.90;;;31.30;55.30;;;;;;5055327;28;20204;-69
2021/07/27 08:09:56;;;;;;;3.63;3.00;;;31.60;55.80;;;;;;5055268;28;20440;-69
2021/07/27 08:12:21;;;;;;;3.70;3.33;;;31.50;55.60;;;;;;5055269;28;20198;-69
2021/07/27 08:14:47;;;;;;;4.70;3.83;;;32.00;56.50;;;;;;5054876;28;20170;-69
2021/07/27 08:17:13;;;;;;;3.97;3.67;;;32.00;54.90;;;;;;5054967;28;20158;-68
2021/07/27 08:19:39;;;;;;;3.83;3.43;;;32.40;56.20;;;;;;5054814;28;20562;-69
2021/07/27 08:22:06;;;;;;;3.33;2.70;;;33.20;51.70;;;;;;5055219;28;20408;-69
2021/07/27 08:24:33;;;;;;;3.70;3.40;;;33.60;54.90;;;;;;5054784;28;20487;-68
2021/07/27 08:26:59;;;;;;;4.80;3.90;;;33.80;53.10;;;;;;5055114;28;20988;-69
2021/07/27 08:29:25;;;;;;;3.57;3.27;;;33.90;49.60;;;;;;5054743;28;20449;-68
2021/07/27 08:31:51;;;;;;;2.83;2.63;;;33.80;52.70;;;;;;5054877;28;20436;-69
2021/07/27 08:34:19;;;;;;;4.77;3.47;;;33.80;50.40;;;;;;5053734;28;20220;-69
2021/07/27 08:36:45;;;;;;;3.60;3.40;;;33.80;51.80;;;;;;5054690;28;20535;-68
2021/07/27 08:39:13;;;;;;;3.10;2.87;;;34.00;52.50;;;;;;5054874;28;20424;-68
2021/07/27 08:41:39;;;;;;;3.47;3.10;;;34.40;51.90;;;;;;5055130;28;20405;-69
2021/07/27 08:44:08;;;;;;;3.53;3.23;;;34.50;48.40;;;;;;5054702;28;20401;-69
2021/07/27 08:46:33;;;;;;;3.67;3.37;;;33.80;51.10;;;;;;5054507;28;20506;-69
2021/07/27 08:48:59;;;;;;;3.87;3.50;;;33.20;51.30;;;;;;5054339;28;20520;-69
2021/07/27 08:51:26;;;;;;;3.90;3.50;;;32.10;51.40;;;;;;5054828;28;20169;-68
2021/07/27 08:53:51;;;;;;;3.30;3.00;;;31.40;53.10;;;;;;5054094;28;20407;-68
2021/07/27 08:56:17;;;;;;;4.20;3.30;;;30.00;53.80;;;;;;5053550;28;20409;-67
2021/07/27 08:58:43;;;;;;;4.23;3.80;;;29.30;57.00;;;;;;5054583;28;20243;-68
2021/07/27 09:01:09;;;;;;;3.33;3.03;;;28.90;58.60;;;;;;5054373;28;20408;-69
2021/07/27 09:03:34;;;;;;;3.73;3.20;;;28.80;62.20;;;;;;5054122;28;20166;-68
2021/07/27 09:06:04;;;;;;;4.87;4.27;;;28.60;59.70;;;;;;5054306;28;20650;-68
2021/07/27 09:08:30;;;;;;;4.60;4.20;;;28.50;59.90;;;;;;5054199;28;20189;-68
2021/07/27 09:11:00;;;;;;;4.13;3.67;;;28.30;60.70;;;;;;5054619;28;20404;-69
2021/07/27 09:13:31;;;;;;;4.00;3.60;;;28.60;62.80;;;;;;5053797;28;20402;-69
2021/07/27 09:15:57;;;;;;;5.40;4.57;;;28.90;58.70;;;;;;5054180;28;20454;-68
2021/07/27 09:18:23;;;;;;;3.83;3.53;;;29.40;59.20;;;;;;5054277;28;20413;-68
2021/07/27 09:20:50;;;;;;;5.57;3.77;;;30.50;56.20;;;;;;5053925;28;20408;-68
2021/07/27 09:23:17;;;;;;;5.37;3.27;;;31.10;55.00;;;;;;5054200;28;20170;-69
2021/07/27 09:25:47;;;;;;;3.63;2.90;;;31.00;54.70;;;;;;5053968;28;20500;-68
2021/07/27 09:28:13;;;;;;;4.20;3.70;;;31.50;55.70;;;;;;5053842;28;20476;-67
2021/07/27 09:30:42;;;;;;;3.70;3.40;;;31.30;54.00;;;;;;5053779;28;20834;-69
2021/07/27 09:33:10;;;;;;;4.20;3.70;;;30.80;55.70;;;;;;5053202;28;20197;-69
2021/07/27 09:35:36;;;;;;;4.20;3.80;;;30.30;56.00;;;;;;5053638;28;20808;-69
2021/07/27 09:38:12;;;;;;;4.83;4.20;;;30.00;55.90;;;;;;5053703;28;20404;-68
2021/07/27 09:40:55;;;;;;;5.50;3.63;;;29.40;57.20;;;;;;5053667;28;20399;-69
2021/07/27 09:43:22;;;;;;;4.10;3.70;;;28.50;56.90;;;;;;5053659;28;20415;-69
2021/07/27 09:45:51;;;;;;;4.87;4.10;;;27.80;58.70;;;;;;5054014;28;20435;-69
2021/07/27 09:48:18;;;;;;;4.33;3.93;;;27.80;58.50;;;;;;5053920;28;20531;-68
2021/07/27 09:50:48;;;;;;;3.63;2.93;;;27.90;58.40;;;;;;5053322;28;20424;-69
2021/07/27 09:53:15;;;;;;;4.83;4.33;;;28.00;58.70;;;;;;5053295;28;20404;-68
2021/07/27 09:55:41;;;;;;;4.40;4.00;;;28.70;58.60;;;;;;5053490;28;20814;-69
2021/07/27 09:58:07;;;;;;;5.00;4.10;;;29.60;58.50;;;;;;5053706;28;20413;-69
2021/07/27 10:00:37;;;;;;;4.33;3.77;;;30.80;57.70;;;;;;5053442;28;20430;-68
2021/07/27 10:03:05;;;;;;;3.67;3.37;;;32.00;52.30;;;;;;5052941;28;20412;-69
2021/07/27 10:05:32;;;;;;;4.10;3.70;;;32.70;48.80;;;;;;5053139;28;20488;-69
2021/07/27 10:07:58;;;;;;;3.93;3.57;;;33.20;48.80;;;;;;5051993;28;21026;-68
2021/07/27 10:10:43;;;;;;;3.60;3.30;;;34.10;48.70;;;;;;5053551;28;20483;-68
2021/07/27 10:13:14;;;;;;;3.37;3.10;;;34.20;46.00;;;;;;5052446;28;20860;-68
2021/07/27 10:15:42;;;;;;;4.67;3.43;;;33.90;46.50;;;;;;5052995;28;20412;-68
2021/07/27 10:18:08;;;;;;;4.47;4.10;;;33.70;48.40;;;;;;5052922;28;20396;-68
2021/07/27 10:20:34;;;;;;;4.40;3.43;;;33.00;46.50;;;;;;5052116;28;20435;-70
2021/07/27 10:22:59;;;;;;;4.03;3.57;;;32.90;47.70;;;;;;5052140;28;20178;-68
2021/07/27 10:25:25;;;;;;;4.50;3.50;;;32.30;46.80;;;;;;5052668;28;20535;-67
2021/07/27 10:27:53;;;;;;;3.63;3.30;;;31.50;48.60;;;;;;5052893;28;20568;-69
2021/07/27 10:30:32;;;;;;;4.30;3.60;;;30.90;52.20;;;;;;5053113;28;20217;-68
2021/07/27 10:32:58;;;;;;;3.23;2.93;;;30.90;50.20;;;;;;5053226;28;20887;-68
2021/07/27 10:35:32;;;;;;;3.70;3.40;;;31.00;50.00;;;;;;5053156;28;20397;-69
2021/07/27 10:38:11;;;;;;;3.73;3.40;;;31.40;50.10;;;;;;5052879;28;20180;-69
2021/07/27 10:40:37;;;;;;;3.13;2.83;;;31.90;48.60;;;;;;5052929;28;20436;-69
2021/07/27 10:43:03;;;;;;;3.77;3.47;;;32.40;47.80;;;;;;5053044;28;20412;-69
2021/07/27 10:45:29;;;;;;;3.07;2.77;;;33.10;46.30;;;;;;5054539;28;20166;-68
2021/07/27 10:47:55;;;;;;;5.23;2.83;;;33.70;46.30;;;;;;5057075;28;20530;-69
2021/07/27 10:50:29;;;;;;;3.03;2.73;;;33.60;46.20;;;;;;5057105;28;20429;-67
2021/07/27 10:53:09;;;;;;;4.03;3.63;;;33.40;46.80;;;;;;5055952;28;20412;-69
2021/07/27 10:55:37;;;;;;;3.37;3.07;;;33.20;44.20;;;;;;5056573;28;20396;-68
2021/07/27 10:58:08;;;;;;;7.23;3.90;;;32.70;45.10;;;;;;5056751;28;20405;-68
2021/07/27 11:00:35;;;;;;;3.93;3.10;;;31.90;45.10;;;;;;5056866;28;20512;-68
2021/07/27 11:03:02;;;;;;;3.93;3.53;;;31.00;47.70;;;;;;5055564;28;20442;-68
2021/07/27 11:05:29;;;;;;;4.73;4.33;;;30.10;49.60;;;;;;5056080;28;20413;-68
2021/07/27 11:07:55;;;;;;;3.40;2.83;;;29.20;50.60;;;;;;5056420;28;20537;-68
2021/07/27 11:10:22;;;;;;;4.33;3.57;;;28.40;52.00;;;;;;5056434;28;20420;-67
2021/07/27 11:12:49;;;;;;;3.50;3.20;;;27.70;52.10;;;;;;5054880;28;20644;-68
2021/07/27 11:15:20;;;;;;;3.63;3.33;;;27.30;53.70;;;;;;5056430;28;20480;-68
2021/07/27 11:17:50;;;;;;;4.40;3.30;;;26.90;54.50;;;;;;5056717;28;20403;-69
2021/07/27 11:20:21;;;;;;;3.60;3.13;;;26.70;56.00;;;;;;5056321;28;20391;-68
2021/07/27 11:22:52;;;;;;;4.80;3.40;;;26.70;57.80;;;;;;5056237;28;20918;-68
2021/07/27 11:25:22;;;;;;;4.23;3.83;;;26.80;55.40;;;;;;5056135;28;20522;-67
2021/07/27 11:27:49;;;;;;;3.20;2.90;;;26.90;54.40;;;;;;5055996;28;20510;-69
2021/07/27 11:30:17;;;;;;;3.67;3.10;;;27.20;54.60;;;;;;5056437;28;20432;-69
2021/07/27 11:32:45;;;;;;;3.13;2.87;;;26.90;54.70;;;;;;5055837;28;20407;-69
2021/07/27 11:35:14;;;;;;;3.57;2.87;;;26.90;56.20;;;;;;5055869;28;20397;-68
2021/07/27 11:37:44;;;;;;;7.97;2.83;;;26.70;56.00;;;;;;5056312;28;20388;-67
2021/07/27 11:40:24;;;;;;;2.93;2.73;;;26.70;55.40;;;;;;5056138;28;20428;-69
2021/07/27 11:43:08;;;;;;;3.67;3.33;;;27.10;56.40;;;;;;5056090;28;20500;-67
2021/07/27 11:45:34;;;;;;;3.93;2.90;;;26.80;55.60;;;;;;5055659;28;20878;-69
2021/07/27 11:48:00;;;;;;;3.17;2.90;;;27.10;57.50;;;;;;5055742;28;20444;-69
2021/07/27 11:50:28;;;;;;;3.87;3.20;;;27.40;56.80;;;;;;5055626;28;20459;-68
2021/07/27 11:53:01;;;;;;;3.43;3.13;;;27.70;56.40;;;;;;5056013;28;20166;-69
2021/07/27 11:55:32;;;;;;;3.90;3.60;;;27.70;54.70;;;;;;5055030;28;20404;-68
2021/07/27 11:57:58;;;;;;;4.57;3.70;;;27.70;55.30;;;;;;5055695;28;20762;-69
2021/07/27 12:00:28;;;;;;;3.40;3.07;;;27.90;58.90;;;;;;5055683;28;20442;-68
2021/07/27 12:02:56;;;;;;;4.30;3.80;;;27.70;56.30;;;;;;5055867;28;20443;-68
2021/07/27 12:05:21;;;;;;;3.50;3.30;;;27.20;58.30;;;;;;5055486;28;20436;-69
2021/07/27 12:07:47;;;;;;;4.60;4.20;;;26.90;58.70;;;;;;5055227;28;20492;-68
2021/07/27 12:10:14;;;;;;;3.30;2.83;;;26.80;60.60;;;;;;5055085;28;20202;-70
2021/07/27 12:12:42;;;;;;;4.50;4.10;;;27.00;58.70;;;;;;5055115;28;20166;-69
2021/07/27 12:15:08;;;;;;;4.10;3.10;;;27.10;58.20;;;;;;5055136;28;20427;-68
2021/07/27 12:17:34;;;;;;;3.57;3.27;;;26.90;59.50;;;;;;5055316;28;20502;-69
2021/07/27 12:20:00;;;;;;;3.70;3.40;;;26.40;58.60;;;;;;5055402;28;20431;-67
2021/07/27 12:22:26;;;;;;;3.10;2.80;;;26.20;63.70;;;;;;5054995;28;20170;-68
2021/07/27 12:24:51;;;;;;;4.03;3.63;;;26.20;61.70;;;;;;5054670;28;20177;-69
2021/07/27 12:27:17;;;;;;;5.00;2.97;;;26.20;63.40;;;;;;5055036;28;20206;-68
2021/07/27 12:29:43;;;;;;;5.63;3.60;;;26.00;63.10;;;;;;5054688;28;20197;-68
2021/07/27 12:32:09;;;;;;;4.10;3.40;;;25.80;67.80;;;;;;5055120;28;20166;-68
2021/07/27 12:34:34;;;;;;;4.10;3.30;;;25.70;66.60;;;;;;5054501;28;20185;-68
2021/07/27 12:37:00;;;;;;;4.17;3.30;;;25.70;69.50;;;;;;5055065;28;20568;-69
2021/07/27 12:39:26;;;;;;;12.93;4.20;;;25.80;66.40;;;;;;5054737;28;20197;-68
2021/07/27 12:41:52;;;;;;;4.50;3.33;;;25.90;72.60;;;;;;5054684;28;20173;-69
2021/07/27 12:44:19;;;;;;;3.80;3.27;;;25.90;67.90;;;;;;5054316;28;20695;-69
2021/07/27 12:46:45;;;;;;;3.20;2.90;;;25.80;66.10;;;;;;5054890;28;20444;-68
2021/07/27 12:49:16;;;;;;;4.50;4.10;;;25.40;65.00;;;;;;5054264;28;20402;-68
2021/07/27 12:51:42;;;;;;;9.10;4.20;;;25.30;66.10;;;;;;5054071;28;20155;-69
2021/07/27 12:54:08;;;;;;;4.03;3.67;;;25.30;66.20;;;;;;5054134;28;20470;-68
2021/07/27 12:56:38;;;;;;;4.03;3.67;;;25.20;67.40;;;;;;5053942;28;20865;-69
2021/07/27 12:59:04;;;;;;;3.53;3.20;;;25.20;68.20;;;;;;5053330;28;20421;-69
2021/07/27 13:01:31;;;;;;;4.40;3.70;;;25.20;68.60;;;;;;5054288;28;20750;-68
2021/07/27 13:03:56;;;;;;;4.00;3.60;;;25.30;68.60;;;;;;5054189;28;20387;-68
2021/07/27 13:06:22;;;;;;;3.97;3.57;;;25.40;67.30;;;;;;5054037;28;20409;-69
2021/07/27 13:08:48;;;;;;;4.50;4.00;;;25.30;67.30;;;;;;5053022;28;20550;-68
2021/07/27 13:11:14;;;;;;;4.10;3.73;;;25.40;69.20;;;;;;5054207;28;20166;-70